This is the latest recevied weather packets stored in our database for station/object W4SNA-2. If no packets are shown the sender has not sent any weather packets the latest 1 day(s).
| Time | Temp. | Humidity | Pressure | Rain* | Wind** | Luminosity | Snow |
|---|---|---|---|---|---|---|---|
| 1777986070 | 15.56° C | 65% | 1017.8 hPa | 0 mm | 0 m/s | - | - |
| 1777985774 | 15.56° C | 65% | 1017.8 hPa | 0 mm | 0 m/s | - | - |
| 1777985455 | 15.56° C | 66% | 1017.7 hPa | 0 mm | 0 m/s | - | - |
| 1777985140 | 15° C | 66% | 1017.7 hPa | 0 mm | 0 m/s | - | - |
| 1777984544 | 15° C | 63% | 1017.5 hPa | 0 mm | 0 m/s | - | - |
| 1777984239 | 14.44° C | 66% | 1017.5 hPa | 0 mm | 0 m/s | - | - |
| 1777983944 | 13.89° C | 68% | 1017.4 hPa | 0 mm | 0 m/s | - | - |
| 1777983639 | 13.89° C | 68% | 1017.4 hPa | 0 mm | 0.45 m/s, 231° | - | - |
| 1777983339 | 13.89° C | 68% | 1017.3 hPa | 0 mm | 0.45 m/s, 209° | - | - |
| 1777983040 | 13.33° C | 69% | 1017.3 hPa | 0 mm | 0.45 m/s, 224° | - | - |
| 1777982441 | 12.78° C | 70% | 1017.3 hPa | 0 mm | 0 m/s | - | - |
| 1777982139 | 12.78° C | 71% | 1017.3 hPa | 0 mm | 0 m/s | - | - |
| 1777981839 | 12.22° C | 72% | 1017.4 hPa | 0 mm | 0 m/s | - | - |
| 1777981539 | 12.22° C | 74% | 1017.3 hPa | 0 mm | 0.89 m/s, 225° | - | - |
| 1777981239 | 11.67° C | 76% | 1017.2 hPa | 0 mm | 0.45 m/s, 237° | - | - |
| 1777980939 | 11.67° C | 76% | 1017.3 hPa | 0 mm | 0.89 m/s, 210° | - | - |
| 1777980639 | 11.67° C | 76% | 1017.1 hPa | 0 mm | 0.89 m/s, 224° | - | - |
| 1777980339 | 11.67° C | 76% | 1017.2 hPa | 0 mm | 0 m/s | - | - |
| 1777980039 | 11.67° C | 76% | 1017.2 hPa | 0 mm | 0.45 m/s, 207° | - | - |
| 1777979739 | 11.67° C | 76% | 1017.1 hPa | 0 mm | 0.45 m/s, 198° | - | - |
| 1777979439 | 11.67° C | 75% | 1017.1 hPa | 0 mm | 1.34 m/s, 213° | - | - |
| 1777979139 | 11.67° C | 75% | 1016.9 hPa | 0 mm | 0.45 m/s, 227° | - | - |
| 1777978839 | 11.67° C | 76% | 1016.8 hPa | 0 mm | 0.45 m/s, 216° | - | - |
| 1777978539 | 11.67° C | 76% | 1016.8 hPa | 0 mm | 0 m/s | - | - |
| 1777978239 | 11.67° C | 76% | 1016.9 hPa | 0 mm | 0.45 m/s, 215° | - | - |
* Rain latest hour (hover to see other rain measurements)
** Current wind speed in m/s (hover to see current wind gust speed)